Time;durP1;ratioP1;P1;durP2;ratioP2;P2;SDS_P1;SDS_P2;PMS_P1;PMS_P2;Temp;Humidity;BMP_temperature;BMP_pressure;BME280_temperature;BME280_humidity;BME280_pressure;Samples;Min_cycle;Max_cycle;Signal;HPM_P1;HPM_P2
2023/05/22 00:00:35;;;;;;;5.00;3.40;;;;;;;18.03;49.69;101108.69;5070308;28;20714;-72
2023/05/22 00:03:03;;;;;;;3.90;3.30;;;;;;;17.99;49.67;101108.63;5066485;28;20207;-72
2023/05/22 00:05:29;;;;;;;6.00;3.50;;;;;;;17.95;50.05;101107.06;5070439;28;20280;-72
2023/05/22 00:07:55;;;;;;;5.37;3.80;;;;;;;17.93;49.80;101109.31;5067343;28;20273;-72
2023/05/22 00:10:23;;;;;;;5.57;3.50;;;;;;;17.90;49.74;101108.13;5046242;28;20226;-72
2023/05/22 00:12:49;;;;;;;6.00;3.60;;;;;;;17.87;50.01;101106.19;5064814;28;20203;-72
2023/05/22 00:15:16;;;;;;;5.83;4.00;;;;;;;17.84;50.17;101104.22;5073018;28;20203;-72
2023/05/22 00:17:43;;;;;;;6.90;4.23;;;;;;;17.82;50.11;101095.81;5070731;28;20574;-72
2023/05/22 00:20:10;;;;;;;5.70;3.57;;;;;;;17.78;50.55;101099.53;5067355;28;20210;-72
2023/05/22 00:22:37;;;;;;;5.87;3.73;;;;;;;17.73;50.22;101099.84;5065137;28;20689;-72
2023/05/22 00:25:04;;;;;;;4.43;3.87;;;;;;;17.69;50.44;101099.81;5064308;28;20281;-72
2023/05/22 00:27:32;;;;;;;7.87;4.00;;;;;;;17.65;50.72;101090.22;5064636;28;20345;-72
2023/05/22 00:29:59;;;;;;;6.17;3.90;;;;;;;17.61;50.52;101094.72;5048573;28;20209;-72
2023/05/22 00:32:26;;;;;;;4.17;3.77;;;;;;;17.55;50.70;101090.84;5070811;28;20194;-72
2023/05/22 00:34:53;;;;;;;5.37;3.87;;;;;;;17.50;50.83;101091.88;5069571;28;20281;-72
2023/05/22 00:37:20;;;;;;;5.13;3.70;;;;;;;17.45;50.70;101094.91;5049319;28;20586;-72
2023/05/22 00:39:47;;;;;;;5.03;4.17;;;;;;;17.41;51.25;101094.06;5069025;28;20213;-72
2023/05/22 00:42:13;;;;;;;4.17;3.73;;;;;;;17.36;51.51;101082.88;5049208;28;20828;-72
2023/05/22 00:44:41;;;;;;;5.13;3.53;;;;;;;17.30;50.98;101081.63;5051112;28;20563;-72
2023/05/22 00:47:07;;;;;;;4.30;3.83;;;;;;;17.25;51.37;101077.38;5065167;28;20744;-72
2023/05/22 00:49:34;;;;;;;6.00;4.37;;;;;;;17.21;51.13;101083.78;5047570;28;20680;-72
2023/05/22 00:52:01;;;;;;;4.50;3.90;;;;;;;17.13;51.40;101079.47;5070458;28;20244;-72
2023/05/22 00:54:28;;;;;;;4.30;3.60;;;;;;;17.08;51.50;101077.84;5068614;28;20228;-72
2023/05/22 00:56:55;;;;;;;4.30;3.63;;;;;;;17.02;51.62;101073.94;5052827;28;20202;-72
2023/05/22 00:59:21;;;;;;;4.67;4.13;;;;;;;16.99;51.79;101081.91;5062502;28;20199;-72
2023/05/22 01:01:49;;;;;;;6.13;3.77;;;;;;;16.94;52.21;101080.31;5053057;28;20233;-72
2023/05/22 01:04:17;;;;;;;4.27;3.83;;;;;;;16.89;52.10;101082.47;5050654;28;20198;-72
2023/05/22 01:06:46;;;;;;;7.57;3.83;;;;;;;16.81;52.81;101076.25;5071665;28;20663;-72
2023/05/22 01:09:13;;;;;;;5.33;3.90;;;;;;;16.78;52.56;101084.97;5062806;28;20201;-72
2023/05/22 01:11:50;;;;;;;5.97;4.40;;;;;;;16.71;52.16;101076.84;5068135;28;20217;-72
2023/05/22 01:14:25;;;;;;;4.70;3.80;;;;;;;16.67;52.72;101078.66;5060491;28;20208;-72
2023/05/22 01:17:01;;;;;;;4.63;3.97;;;;;;;16.62;52.80;101078.94;5050797;28;20205;-72
2023/05/22 01:19:52;;;;;;;6.80;3.97;;;;;;;16.58;52.77;101080.78;5072897;28;20655;-72
2023/05/22 01:22:35;;;;;;;8.30;3.73;;;;;;;16.52;53.31;101076.88;5054232;28;20225;-72
2023/05/22 01:25:30;;;;;;;5.83;4.00;;;;;;;16.47;53.41;101079.03;5048513;28;20263;-72
2023/05/22 01:28:16;;;;;;;5.73;4.17;;;;;;;16.42;53.47;101077.44;5065328;28;20220;-72
2023/05/22 01:30:50;;;;;;;5.23;3.80;;;;;;;16.38;53.28;101081.91;5054777;28;20214;-72
2023/05/22 01:33:18;;;;;;;7.00;4.03;;;;;;;16.35;54.36;101081.84;5065941;28;20205;-72
2023/05/22 01:35:50;;;;;;;6.77;3.90;;;;;;;16.29;53.37;101081.34;5060409;28;20205;-72
2023/05/22 01:38:18;;;;;;;7.13;4.77;;;;;;;16.25;54.61;101077.81;5054756;28;20195;-72
2023/05/22 01:40:45;;;;;;;4.47;3.87;;;;;;;16.22;54.35;101073.22;5068667;28;20222;-72
2023/05/22 01:43:12;;;;;;;5.43;4.00;;;;;;;16.18;54.05;101074.25;5047134;28;20213;-72
2023/05/22 01:45:39;;;;;;;4.57;4.00;;;;;;;16.15;53.87;101074.97;5055108;28;20569;-72
2023/05/22 01:48:07;;;;;;;5.30;4.30;;;;;;;16.12;53.97;101073.75;5069945;28;20203;-72
2023/05/22 01:50:34;;;;;;;7.20;4.50;;;;;;;16.10;54.48;101078.66;5054882;28;20220;-72
2023/05/22 01:53:07;;;;;;;7.07;4.40;;;;;;;16.08;54.17;101072.13;5059622;28;20292;-72
2023/05/22 01:55:41;;;;;;;5.87;4.67;;;;;;;16.06;54.70;101077.03;5068047;28;20204;-72
2023/05/22 01:58:17;;;;;;;7.27;4.43;;;;;;;16.04;54.44;101082.72;5048051;28;20227;-72
2023/05/22 02:00:46;;;;;;;8.70;4.23;;;;;;;16.02;55.08;101084.19;5046051;28;20310;-72
2023/05/22 02:03:18;;;;;;;6.83;4.63;;;;;;;15.99;55.13;101076.91;5069299;28;20321;-72
2023/05/22 02:05:46;;;;;;;7.70;4.90;;;;;;;15.95;54.90;101074.19;5067923;28;20626;-72
2023/05/22 02:08:14;;;;;;;5.03;4.20;;;;;;;15.92;54.69;101074.88;5048817;28;20645;-72
2023/05/22 02:10:43;;;;;;;5.90;4.33;;;;;;;15.89;54.48;101074.78;5049111;28;20239;-72
2023/05/22 02:13:10;;;;;;;5.13;4.60;;;;;;;15.84;54.92;101075.06;5054328;28;20201;-72
2023/05/22 02:15:36;;;;;;;7.47;4.63;;;;;;;15.80;55.25;101068.88;5046192;28;20210;-72
2023/05/22 02:18:03;;;;;;;7.20;4.70;;;;;;;15.76;55.49;101076.03;5065179;28;20201;-72
2023/05/22 02:20:31;;;;;;;7.47;4.63;;;;;;;15.73;55.28;101074.06;5065790;28;20212;-72
2023/05/22 02:22:57;;;;;;;6.23;4.80;;;;;;;15.68;55.42;101067.09;5069847;28;20206;-72
2023/05/22 02:25:24;;;;;;;5.63;4.03;;;;;;;15.65;55.81;101067.03;5051870;28;20198;-72
2023/05/22 02:27:50;;;;;;;4.60;4.17;;;;;;;15.61;56.15;101069.63;5046253;28;20251;-72
2023/05/22 02:30:16;;;;;;;5.17;4.50;;;;;;;15.57;55.97;101070.66;5052174;28;20294;-72
2023/05/22 02:32:46;;;;;;;6.70;4.47;;;;;;;15.52;56.20;101066.38;5049988;28;20205;-72
2023/05/22 02:35:12;;;;;;;6.90;4.83;;;;;;;15.47;56.37;101060.56;5042098;28;20273;-72
2023/05/22 02:37:40;;;;;;;6.10;4.67;;;;;;;15.43;55.76;101065.00;5051328;28;20211;-72
2023/05/22 02:40:08;;;;;;;6.07;4.73;;;;;;;15.39;56.92;101051.63;5052176;28;20196;-72
2023/05/22 02:42:35;;;;;;;9.13;4.63;;;;;;;15.35;56.35;101055.31;5055869;28;20437;-72
2023/05/22 02:45:02;;;;;;;6.77;4.73;;;;;;;15.31;56.67;101068.50;5052224;28;20680;-72
2023/05/22 02:47:29;;;;;;;6.53;4.80;;;;;;;15.26;57.57;101066.09;5051313;28;20208;-72
2023/05/22 02:49:56;;;;;;;6.53;4.83;;;;;;;15.22;56.66;101067.16;5062075;28;20234;-72
2023/05/22 02:52:23;;;;;;;6.67;5.10;;;;;;;15.17;56.21;101060.19;5052112;28;20379;-72
2023/05/22 02:54:51;;;;;;;9.73;4.80;;;;;;;15.15;57.69;101064.31;5051500;28;20549;-72
2023/05/22 02:57:18;;;;;;;5.53;4.87;;;;;;;15.10;57.04;101061.91;5055463;28;20615;-72
2023/05/22 02:59:44;;;;;;;6.23;4.53;;;;;;;15.06;56.79;101061.06;5074447;28;20194;-72
2023/05/22 03:02:11;;;;;;;9.60;5.10;;;;;;;15.03;58.04;101073.16;5073633;28;20228;-72
2023/05/22 03:04:38;;;;;;;12.27;5.07;;;;;;;15.00;58.10;101073.84;5074080;28;20229;-72
2023/05/22 03:07:06;;;;;;;7.13;5.00;;;;;;;14.97;58.05;101074.53;5054580;28;20222;-72
2023/05/22 03:09:32;;;;;;;5.90;4.60;;;;;;;14.93;58.02;101068.34;5074456;28;20650;-72
2023/05/22 03:12:00;;;;;;;5.03;4.40;;;;;;;14.90;58.03;101070.91;5073276;28;20653;-72
2023/05/22 03:14:27;;;;;;;5.40;4.17;;;;;;;14.87;58.27;101069.72;5055843;28;20203;-72
2023/05/22 03:16:54;;;;;;;8.70;4.60;;;;;;;14.83;58.81;101070.72;5048930;28;20695;-72
2023/05/22 03:19:22;;;;;;;5.80;4.80;;;;;;;14.78;58.48;101061.13;5054370;28;20266;-72
2023/05/22 03:21:48;;;;;;;5.77;5.10;;;;;;;14.73;57.93;101058.72;5058489;28;20221;-72
2023/05/22 03:24:15;;;;;;;7.37;4.60;;;;;;;14.69;59.67;101067.72;5078239;28;20205;-72
2023/05/22 03:26:42;;;;;;;7.83;5.07;;;;;;;14.66;59.79;101057.75;5053188;28;20218;-72
2023/05/22 03:29:14;;;;;;;7.03;5.20;;;;;;;14.61;58.91;101042.84;5054702;28;20196;-72
2023/05/22 03:31:42;;;;;;;8.20;4.87;;;;;;;14.59;59.63;101050.38;5050080;28;20309;-72
2023/05/22 03:34:12;;;;;;;5.60;4.70;;;;;;;14.55;59.25;101046.84;5055469;28;20198;-72
2023/05/22 03:36:40;;;;;;;6.53;4.57;;;;;;;14.54;59.16;101041.88;5050278;28;20245;-72
2023/05/22 03:39:06;;;;;;;7.13;5.40;;;;;;;14.53;58.68;101051.72;5069304;28;20341;-72
2023/05/22 03:41:38;;;;;;;6.40;4.80;;;;;;;14.53;59.53;101050.94;5058754;28;20340;-72
2023/05/22 03:44:05;;;;;;;7.13;5.57;;;;;;;14.52;58.74;101049.41;5047306;28;20199;-72
2023/05/22 03:46:34;;;;;;;7.13;5.20;;;;;;;14.53;60.14;101050.94;5043146;28;20221;-72
2023/05/22 03:49:00;;;;;;;8.53;5.37;;;;;;;14.53;60.58;101045.63;5048021;28;20337;-72
2023/05/22 03:51:27;;;;;;;12.13;4.80;;;;;;;14.52;59.80;101052.84;5052061;28;20218;-72
2023/05/22 03:53:53;;;;;;;6.83;5.33;;;;;;;14.53;59.43;101050.94;5053510;28;20455;-72
2023/05/22 03:56:20;;;;;;;6.20;5.00;;;;;;;14.54;59.43;101050.59;5055216;28;20205;-72
2023/05/22 03:58:48;;;;;;;6.03;5.07;;;;;;;14.54;59.86;101047.94;5054711;28;20202;-72
2023/05/22 04:01:15;;;;;;;6.83;5.27;;;;;;;14.55;61.09;101046.84;5071772;28;20226;-72
2023/05/22 04:03:43;;;;;;;8.20;5.20;;;;;;;14.57;60.70;101054.47;5070025;28;20203;-72
2023/05/22 04:06:12;;;;;;;7.37;5.50;;;;;;;14.59;60.16;101057.59;5047469;28;20292;-72
2023/05/22 04:08:39;;;;;;;9.00;5.50;;;;;;;14.61;61.07;101058.78;5068527;28;20294;-72
2023/05/22 04:11:05;;;;;;;7.70;5.33;;;;;;;14.63;60.19;101059.22;5069096;28;20241;-72
2023/05/22 04:13:32;;;;;;;8.13;5.87;;;;;;;14.66;59.79;101063.84;5049829;28;20210;-72
2023/05/22 04:16:00;;;;;;;7.97;5.50;;;;;;;14.68;60.33;101051.00;5072567;28;20225;-72
2023/05/22 04:18:27;;;;;;;6.93;5.03;;;;;;;14.72;60.49;101054.50;5072209;28;20229;-72
2023/05/22 04:20:54;;;;;;;8.90;5.60;;;;;;;14.77;60.60;101059.59;5054894;28;20417;-72
2023/05/22 04:23:21;;;;;;;7.50;5.43;;;;;;;14.81;60.39;101062.31;5054478;28;20186;-72
2023/05/22 04:25:47;;;;;;;11.60;6.50;;;;;;;14.86;60.00;101059.41;5065710;28;20205;-72
2023/05/22 04:28:16;;;;;;;9.60;6.03;;;;;;;14.90;59.79;101055.72;5056552;28;20217;-72
2023/05/22 04:30:42;;;;;;;8.30;5.33;;;;;;;14.96;61.19;101053.59;5066013;28;20776;-72
2023/05/22 04:33:09;;;;;;;11.33;6.30;;;;;;;15.01;60.20;101048.78;5071885;28;20194;-72
2023/05/22 04:35:35;;;;;;;7.27;5.80;;;;;;;15.06;60.02;101051.19;5051998;28;20216;-72
2023/05/22 04:38:05;;;;;;;7.60;5.77;;;;;;;15.13;60.78;101061.22;5063107;28;20221;-72
2023/05/22 04:40:32;;;;;;;7.33;5.63;;;;;;;15.17;60.11;101062.84;5059325;28;20773;-72
2023/05/22 04:43:00;;;;;;;7.00;5.50;;;;;;;15.24;60.81;101063.03;5075903;28;20196;-72
2023/05/22 04:45:27;;;;;;;8.80;5.83;;;;;;;15.30;60.41;101064.31;5051133;28;20207;-72
2023/05/22 04:47:58;;;;;;;9.57;5.80;;;;;;;15.37;60.05;101055.75;5068714;28;20306;-72
2023/05/22 04:50:25;;;;;;;6.20;5.37;;;;;;;15.45;60.16;101054.78;5052220;28;20216;-72
2023/05/22 04:52:52;;;;;;;8.00;5.87;;;;;;;15.52;60.19;101050.41;5052980;28;20372;-72
2023/05/22 04:55:21;;;;;;;14.33;6.10;;;;;;;15.63;60.17;101045.31;5051385;28;20230;-72
2023/05/22 04:57:47;;;;;;;11.27;6.13;;;;;;;15.71;59.95;101047.00;5069963;28;20279;-72
2023/05/22 05:00:15;;;;;;;6.83;5.63;;;;;;;15.80;59.03;101055.56;5052226;28;20202;-72
2023/05/22 05:02:42;;;;;;;8.50;6.47;;;;;;;15.90;59.73;101050.47;5050980;28;20287;-72
2023/05/22 05:05:09;;;;;;;7.27;5.87;;;;;;;15.98;59.03;101060.16;5045448;28;20295;-72
2023/05/22 05:07:37;;;;;;;9.70;6.13;;;;;;;16.06;59.96;101063.72;5065231;28;20704;-72
2023/05/22 05:10:04;;;;;;;11.30;6.47;;;;;;;16.12;59.53;101070.31;5050250;28;20349;-72
2023/05/22 05:12:32;;;;;;;7.73;6.30;;;;;;;16.19;58.75;101070.47;5052484;28;20268;-72
2023/05/22 05:14:58;;;;;;;7.33;5.73;;;;;;;16.27;59.21;101069.47;5065316;28;20204;-72
2023/05/22 05:17:24;;;;;;;6.57;5.87;;;;;;;16.33;58.64;101066.19;5049559;28;20220;-72
2023/05/22 05:19:51;;;;;;;8.43;5.77;;;;;;;16.42;58.76;101068.66;5050686;28;20213;-72
2023/05/22 05:22:17;;;;;;;7.43;6.07;;;;;;;16.49;58.35;101071.47;5052349;28;20560;-72
2023/05/22 05:24:43;;;;;;;8.63;5.83;;;;;;;16.57;58.82;101070.47;5045590;28;20217;-72
2023/05/22 05:27:10;;;;;;;10.20;5.87;;;;;;;16.65;58.43;101064.91;5043584;28;20221;-72
2023/05/22 05:29:38;;;;;;;7.63;5.63;;;;;;;16.74;58.51;101064.69;5075307;28;20234;-72
2023/05/22 05:32:15;;;;;;;6.73;5.47;;;;;;;16.82;57.96;101061.78;5058616;28;20227;-72
2023/05/22 05:34:52;;;;;;;8.80;6.20;;;;;;;16.92;57.81;101065.78;5057182;28;20559;-72
2023/05/22 05:37:48;;;;;;;7.77;5.93;;;;;;;17.00;57.85;101062.88;5061141;28;20226;-72
2023/05/22 05:40:15;;;;;;;10.43;6.23;;;;;;;17.08;57.54;101067.19;5053145;28;20737;-72
2023/05/22 05:42:46;;;;;;;9.57;5.80;;;;;;;17.16;57.68;101071.50;5052493;28;20658;-72
2023/05/22 05:45:15;;;;;;;7.77;6.10;;;;;;;17.25;57.60;101061.38;5055644;28;20195;-72
2023/05/22 05:47:42;;;;;;;8.77;6.07;;;;;;;17.32;57.54;101064.13;5049454;28;20210;-73
2023/05/22 05:50:10;;;;;;;12.97;6.10;;;;;;;17.41;57.36;101064.69;5058790;28;20298;-72
2023/05/22 05:52:38;;;;;;;9.60;6.33;;;;;;;17.49;56.99;101073.59;5050105;28;20553;-72
2023/05/22 05:55:10;;;;;;;7.83;5.67;;;;;;;17.54;57.10;101068.69;5043835;28;20215;-72
2023/05/22 05:57:37;;;;;;;8.90;5.93;;;;;;;17.61;56.97;101062.69;5049207;28;20205;-72
2023/05/22 06:00:10;;;;;;;8.37;6.17;;;;;;;17.68;57.10;101068.13;5052168;28;20237;-72
2023/05/22 06:02:44;;;;;;;8.97;6.23;;;;;;;17.73;56.72;101065.13;5062456;28;20211;-72
2023/05/22 06:05:25;;;;;;;8.40;6.10;;;;;;;17.76;56.60;101061.75;5046227;28;20723;-72
2023/05/22 06:07:59;;;;;;;8.77;6.03;;;;;;;17.82;56.72;101061.09;5073165;28;20244;-72
2023/05/22 06:10:25;;;;;;;8.37;6.07;;;;;;;17.87;56.95;101057.31;5052891;28;20214;-72
2023/05/22 06:13:09;;;;;;;6.70;5.80;;;;;;;17.94;57.51;101054.72;5053248;28;20572;-72
2023/05/22 06:15:35;;;;;;;11.37;6.33;;;;;;;17.99;56.82;101052.50;5050600;28;20207;-72
2023/05/22 06:18:04;;;;;;;8.03;5.63;;;;;;;18.04;56.79;101052.19;5049745;28;20202;-72
2023/05/22 06:20:31;;;;;;;8.07;6.10;;;;;;;18.09;56.36;101051.88;5051326;28;20712;-72
2023/05/22 06:22:58;;;;;;;10.30;6.77;;;;;;;18.15;56.50;101060.31;5050500;28;20199;-72
2023/05/22 06:25:28;;;;;;;8.03;6.10;;;;;;;18.21;56.40;101056.97;5049031;28;20201;-72
2023/05/22 06:27:56;;;;;;;9.37;6.40;;;;;;;18.28;56.29;101049.06;5048666;28;20297;-72
2023/05/22 06:30:22;;;;;;;12.20;6.23;;;;;;;18.35;56.23;101049.16;5048873;28;20296;-72
2023/05/22 06:32:51;;;;;;;7.27;6.13;;;;;;;18.46;55.85;101047.34;5055393;28;20204;-72
2023/05/22 06:35:20;;;;;;;8.87;6.57;;;;;;;18.54;55.86;101050.88;5046175;28;20203;-72
2023/05/22 06:37:47;;;;;;;11.07;6.50;;;;;;;18.63;55.82;101056.72;5053921;28;20727;-72
2023/05/22 06:40:14;;;;;;;8.57;6.80;;;;;;;18.71;55.51;101053.72;5051207;28;20205;-72
2023/05/22 06:42:47;;;;;;;10.60;6.67;;;;;;;18.80;55.34;101067.56;5050599;28;20206;-72
2023/05/22 06:45:32;;;;;;;7.80;6.30;;;;;;;18.89;55.23;101060.00;5075405;28;20214;-72
2023/05/22 06:48:14;;;;;;;8.30;6.90;;;;;;;19.01;55.43;101061.63;5067993;28;20212;-72
2023/05/22 06:50:56;;;;;;;7.57;6.27;;;;;;;19.09;54.68;101055.97;5052001;28;20222;-72
2023/05/22 06:53:24;;;;;;;7.17;6.27;;;;;;;19.20;54.77;101056.81;5051991;28;20199;-72
2023/05/22 06:55:50;;;;;;;9.03;6.57;;;;;;;19.29;54.67;101051.94;5053799;28;20198;-72
2023/05/22 06:58:26;;;;;;;7.50;6.60;;;;;;;19.40;54.44;101055.47;5046417;28;20682;-72
2023/05/22 07:00:54;;;;;;;8.33;6.40;;;;;;;19.48;54.11;101059.72;5051617;28;20224;-72
2023/05/22 07:03:26;;;;;;;8.70;6.40;;;;;;;19.60;54.28;101055.94;5049602;28;20572;-72
2023/05/22 07:06:19;;;;;;;6.83;5.97;;;;;;;19.74;53.19;101048.78;5070920;28;20259;-72
2023/05/22 07:08:45;;;;;;;8.70;6.47;;;;;;;19.83;53.38;101051.13;5051920;28;20214;-72
2023/05/22 07:11:12;;;;;;;9.03;6.60;;;;;;;19.93;53.37;101056.50;5051385;28;20655;-72
2023/05/22 07:13:38;;;;;;;7.83;5.90;;;;;;;20.04;53.34;101056.56;5050905;28;20302;-72
2023/05/22 07:16:05;;;;;;;10.70;6.40;;;;;;;20.14;53.08;101055.88;5055423;28;21358;-72
2023/05/22 07:18:33;;;;;;;10.50;5.83;;;;;;;20.24;53.17;101050.53;5050458;28;20561;-72
2023/05/22 07:21:00;;;;;;;7.43;5.67;;;;;;;20.38;53.08;101053.25;5048534;28;20246;-72
2023/05/22 07:23:28;;;;;;;6.27;5.63;;;;;;;20.50;52.58;101044.84;5048862;28;20210;-72
2023/05/22 07:25:58;;;;;;;6.80;5.43;;;;;;;20.65;52.54;101043.72;5057688;28;20203;-72
2023/05/22 07:28:30;;;;;;;6.27;5.30;;;;;;;20.78;52.51;101044.13;5050587;28;20255;-72
2023/05/22 07:31:05;;;;;;;7.77;5.53;;;;;;;20.90;52.07;101036.50;5052607;28;20291;-72
2023/05/22 07:33:31;;;;;;;9.60;5.33;;;;;;;21.04;51.88;101039.19;5049445;28;20195;-73
2023/05/22 07:35:58;;;;;;;7.93;5.53;;;;;;;21.14;51.18;101048.38;5050158;28;20736;-73
2023/05/22 07:38:25;;;;;;;7.97;5.60;;;;;;;21.20;50.59;101053.00;5048047;28;20748;-72
2023/05/22 07:41:01;;;;;;;7.73;5.77;;;;;;;21.28;51.10;101051.84;5048704;28;20226;-73
2023/05/22 07:43:29;;;;;;;10.10;5.43;;;;;;;21.38;51.27;101047.59;5050890;28;20230;-73
2023/05/22 07:45:56;;;;;;;7.77;5.20;;;;;;;21.45;50.38;101047.59;5055013;28;20658;-72
2023/05/22 07:48:25;;;;;;;7.77;5.40;;;;;;;21.57;50.61;101047.19;5050207;28;20473;-73
2023/05/22 07:50:52;;;;;;;9.90;5.57;;;;;;;21.65;50.51;101046.78;5051833;28;20223;-73
2023/05/22 07:53:18;;;;;;;7.07;5.07;;;;;;;21.72;50.26;101048.69;5053055;28;20221;-73
2023/05/22 07:55:49;;;;;;;9.57;5.67;;;;;;;21.79;49.33;101048.69;5052341;28;20620;-72
2023/05/22 07:58:18;;;;;;;9.77;5.53;;;;;;;21.83;49.26;101052.13;5049759;28;20228;-72
2023/05/22 08:00:46;;;;;;;8.40;5.37;;;;;;;21.89;50.03;101053.25;5043889;28;20222;-72
2023/05/22 08:03:12;;;;;;;8.40;5.17;;;;;;;21.95;49.48;101059.75;5064366;28;20274;-72
2023/05/22 08:05:39;;;;;;;5.03;4.53;;;;;;;22.00;49.92;101048.59;5065987;28;20813;-72
2023/05/22 08:08:05;;;;;;;7.50;4.97;;;;;;;22.06;48.90;101055.88;5069085;28;20720;-73
2023/05/22 08:10:31;;;;;;;7.60;4.93;;;;;;;22.11;49.11;101047.41;5062024;28;20221;-72
2023/05/22 08:13:01;;;;;;;6.23;5.00;;;;;;;22.16;48.51;101048.91;5062674;28;20574;-72
2023/05/22 08:15:28;;;;;;;5.73;4.50;;;;;;;22.23;47.81;101059.63;5066633;28;20207;-73
2023/05/22 08:17:55;;;;;;;6.17;4.60;;;;;;;22.29;48.64;101060.75;5063759;28;20210;-72
2023/05/22 08:20:21;;;;;;;5.47;4.60;;;;;;;22.36;47.95;101058.03;5067520;28;20229;-72
2023/05/22 08:22:48;;;;;;;7.40;4.30;;;;;;;22.42;48.28;101051.09;5066904;28;20206;-72
2023/05/22 08:25:14;;;;;;;5.65;4.50;;;;;;;22.49;47.70;101051.84;5073124;28;20528;-72
2023/05/22 08:27:41;;;;;;;8.43;4.18;;;;;;;22.54;47.77;101048.72;5065501;28;20191;-73
2023/05/22 08:30:08;;;;;;;5.50;4.10;;;;;;;22.59;47.79;101051.00;5065707;28;20207;-73
2023/05/22 08:32:36;;;;;;;6.57;4.00;;;;;;;22.67;47.33;101057.84;5064605;28;20248;-73
2023/05/22 08:35:02;;;;;;;4.28;3.75;;;;;;;22.73;46.10;101059.00;5070784;28;20203;-73
2023/05/22 08:37:28;;;;;;;4.35;3.95;;;;;;;22.79;47.18;101038.56;5064504;28;20190;-73
2023/05/22 08:39:55;;;;;;;6.45;4.80;;;;;;;22.87;46.71;101042.72;5068197;28;20596;-73
2023/05/22 08:42:21;;;;;;;5.88;4.25;;;;;;;22.95;46.87;101038.03;5067001;28;20747;-73
2023/05/22 08:44:48;;;;;;;9.65;4.13;;;;;;;23.02;45.74;101032.59;5063395;28;20688;-73
2023/05/22 08:47:15;;;;;;;7.40;3.88;;;;;;;23.09;44.36;101030.63;5067763;28;20688;-73
2023/05/22 08:49:43;;;;;;;6.28;4.18;;;;;;;23.19;45.41;101031.72;5064679;28;20575;-73
2023/05/22 08:52:12;;;;;;;9.48;4.25;;;;;;;23.29;45.04;101031.59;5045834;28;20264;-73
2023/05/22 08:54:42;;;;;;;6.45;3.80;;;;;;;23.37;45.12;101032.28;5063605;28;20199;-73
2023/05/22 08:57:08;;;;;;;8.20;3.60;;;;;;;23.37;42.72;101026.91;5064691;28;20201;-73
2023/05/22 08:59:36;;;;;;;6.10;3.75;;;;;;;23.36;42.82;101022.69;5063723;28;20446;-72
2023/05/22 09:02:05;;;;;;;4.75;3.83;;;;;;;23.37;43.93;101026.91;5049447;28;20221;-73
2023/05/22 09:04:31;;;;;;;9.00;3.58;;;;;;;23.36;43.74;101014.59;5051726;28;20205;-73
2023/05/22 09:07:04;;;;;;;4.68;3.75;;;;;;;23.37;43.41;101012.66;5064765;28;20211;-73
2023/05/22 09:09:30;;;;;;;4.03;3.53;;;;;;;23.38;43.62;101006.09;5065490;28;20205;-73
2023/05/22 09:11:57;;;;;;;10.02;3.53;;;;;;;23.37;42.76;101020.75;5064935;28;20222;-72
2023/05/22 09:14:24;;;;;;;3.85;3.53;;;;;;;23.36;43.61;101019.25;5061941;28;20202;-73
2023/05/22 09:16:53;;;;;;;5.32;3.67;;;;;;;23.32;42.92;101021.94;5067868;28;20198;-73
2023/05/22 09:19:20;;;;;;;6.93;3.58;;;;;;;23.33;42.71;101009.25;5041519;28;20288;-74
2023/05/22 09:21:47;;;;;;;4.97;3.17;;;;;;;23.35;42.24;101004.97;5064252;28;20225;-73
2023/05/22 09:24:15;;;;;;;5.43;3.17;;;;;;;23.38;42.06;101007.63;5066407;28;20199;-72
2023/05/22 09:26:41;;;;;;;7.22;3.40;;;;;;;23.46;43.23;101008.31;5069622;28;20846;-72
2023/05/22 09:29:08;;;;;;;6.25;3.67;;;;;;;23.59;42.43;101015.50;5066873;28;20276;-73
2023/05/22 09:31:41;;;;;;;5.78;3.95;;;;;;;23.75;42.59;101006.84;5060497;28;20210;-73
2023/05/22 09:34:09;;;;;;;6.25;3.40;;;;;;;23.92;41.08;101010.50;5064850;28;20206;-72
2023/05/22 09:36:36;;;;;;;5.03;2.88;;;;;;;24.03;40.97;100997.66;5065889;28;20286;-72
2023/05/22 09:39:04;;;;;;;4.00;3.05;;;;;;;24.16;40.21;101002.09;5046277;28;20203;-73
2023/05/22 09:41:35;;;;;;;5.60;3.20;;;;;;;24.27;41.00;100997.31;5062497;28;20220;-73
2023/05/22 09:44:01;;;;;;;5.65;3.10;;;;;;;24.40;40.56;100992.13;5065005;28;20225;-73
2023/05/22 09:46:28;;;;;;;4.95;3.35;;;;;;;24.55;40.86;100998.84;5063959;28;20211;-73
2023/05/22 09:48:54;;;;;;;6.20;3.08;;;;;;;24.67;39.34;100995.59;5064081;28;20217;-73
2023/05/22 09:51:22;;;;;;;4.25;3.22;;;;;;;24.77;39.95;100998.09;5061985;28;20225;-73
2023/05/22 09:53:49;;;;;;;5.07;3.20;;;;;;;24.93;39.58;100995.53;5066004;28;20302;-73
2023/05/22 09:56:18;;;;;;;3.42;2.90;;;;;;;25.08;39.19;100994.09;5071212;28;20397;-73
2023/05/22 09:58:47;;;;;;;4.43;2.70;;;;;;;25.24;39.39;100994.22;5071068;28;20202;-73
2023/05/22 10:01:15;;;;;;;2.85;2.63;;;;;;;25.38;38.50;100983.13;5069800;28;20280;-73
2023/05/22 10:03:43;;;;;;;3.80;2.70;;;;;;;25.45;37.00;100985.72;5070033;28;20198;-73
2023/05/22 10:06:11;;;;;;;4.55;2.55;;;;;;;25.50;37.17;100977.13;5056956;28;20887;-73
2023/05/22 10:08:43;;;;;;;3.70;2.72;;;;;;;25.56;37.23;100988.19;5070476;28;20226;-73
2023/05/22 10:11:10;;;;;;;4.40;3.10;;;;;;;25.58;36.68;100973.09;5071552;28;20241;-73
2023/05/22 10:13:37;;;;;;;3.20;2.78;;;;;;;25.63;35.80;100986.13;5069958;28;20277;-73
2023/05/22 10:16:06;;;;;;;10.18;3.05;;;;;;;25.70;37.17;100979.81;5073384;28;20572;-73
2023/05/22 10:18:32;;;;;;;6.13;2.90;;;;;;;25.75;36.34;100971.94;5071514;28;20293;-73
2023/05/22 10:20:59;;;;;;;3.50;2.53;;;;;;;25.85;36.32;100968.25;5069922;28;20222;-73
2023/05/22 10:23:28;;;;;;;4.90;2.72;;;;;;;25.96;36.43;100976.19;5053198;28;20205;-73
2023/05/22 10:25:55;;;;;;;5.70;2.60;;;;;;;25.98;35.07;100963.00;5068023;28;20202;-73
2023/05/22 10:28:30;;;;;;;3.35;2.55;;;;;;;26.04;35.02;100966.72;5064121;28;20195;-73
2023/05/22 10:31:01;;;;;;;4.65;2.90;;;;;;;26.08;33.97;100951.94;5069099;28;20281;-73
2023/05/22 10:34:01;;;;;;;6.60;2.63;;;;;;;26.22;35.75;100958.97;5070059;28;20210;-73
2023/05/22 10:36:39;;;;;;;4.03;2.45;;;;;;;26.33;34.44;100960.25;5063135;28;20210;-73
2023/05/22 10:39:21;;;;;;;5.40;2.28;;;;;;;26.47;32.20;100957.19;5063975;28;20877;-73
2023/05/22 10:41:47;;;;;;;5.85;2.70;;;;;;;26.56;32.98;100951.97;5067086;28;20652;-73
2023/05/22 10:44:13;;;;;;;6.60;3.03;;;;;;;26.65;34.06;100946.72;5066058;28;20198;-73
2023/05/22 10:46:40;;;;;;;3.75;2.30;;;;;;;26.79;33.67;100949.09;5064825;28;20217;-73
2023/05/22 10:49:07;;;;;;;5.93;2.60;;;;;;;26.85;33.15;100946.59;5065677;28;20217;-73
2023/05/22 10:51:34;;;;;;;3.58;2.90;;;;;;;26.86;32.96;100942.72;5068215;28;20223;-73
2023/05/22 10:54:04;;;;;;;5.32;2.80;;;;;;;26.88;32.45;100935.66;5065894;28;20281;-73
2023/05/22 10:56:34;;;;;;;3.97;2.53;;;;;;;26.83;31.78;100938.16;5066055;28;20622;-73
2023/05/22 10:59:03;;;;;;;2.78;2.50;;;;;;;26.70;31.19;100938.09;5065275;28;20627;-73
2023/05/22 11:01:33;;;;;;;3.28;2.45;;;;;;;26.63;31.99;100937.50;5065670;28;20215;-73
2023/05/22 11:04:17;;;;;;;6.05;2.65;;;;;;;26.49;32.33;100946.72;5048321;28;20573;-73
2023/05/22 11:07:03;;;;;;;3.30;2.22;;;;;;;26.43;32.52;100936.81;5049069;28;20703;-73
2023/05/22 11:09:30;;;;;;;5.38;2.50;;;;;;;26.28;32.36;100939.09;5067299;28;20593;-73
2023/05/22 11:12:15;;;;;;;4.18;2.50;;;;;;;26.24;33.07;100937.66;5064351;28;20302;-73
2023/05/22 11:14:41;;;;;;;3.03;2.47;;;;;;;26.11;31.54;100937.56;5065268;28;20622;-73
2023/05/22 11:17:08;;;;;;;3.42;2.20;;;;;;;25.99;32.15;100930.09;5067232;28;20226;-73
2023/05/22 11:19:35;;;;;;;4.93;2.35;;;;;;;25.95;32.55;100924.00;5046419;28;20196;-72
2023/05/22 11:22:03;;;;;;;2.78;2.42;;;;;;;25.87;32.15;100929.97;5066076;28;20571;-73
2023/05/22 11:24:33;;;;;;;2.75;2.20;;;;;;;25.78;31.21;100933.25;5064063;28;20191;-73
2023/05/22 11:27:04;;;;;;;3.28;2.33;;;;;;;25.74;32.42;100926.41;5068055;28;20281;-73
2023/05/22 11:29:31;;;;;;;4.60;2.30;;;;;;;25.64;31.97;100930.84;5063691;28;20675;-73
2023/05/22 11:31:58;;;;;;;2.58;2.22;;;;;;;25.59;31.59;100927.88;5067825;28;20597;-73